createdAt,value
2019-02-28T00:00:49.402Z,982.44
2019-02-28T00:01:49.314Z,982.39
2019-02-28T00:02:49.234Z,982.42
2019-02-28T00:03:49.147Z,982.40
2019-02-28T00:04:49.058Z,982.43
2019-02-28T00:05:48.983Z,982.38
2019-02-28T00:06:48.896Z,982.39
2019-02-28T00:07:49.692Z,982.39
2019-02-28T00:08:51.081Z,982.41
2019-02-28T00:09:48.649Z,982.35
2019-02-28T00:10:48.559Z,982.37
2019-02-28T00:11:48.471Z,982.38
2019-02-28T00:12:48.735Z,982.36
2019-02-28T00:13:48.307Z,982.35
2019-02-28T00:14:48.220Z,982.33
2019-02-28T00:15:48.137Z,982.31
2019-02-28T00:16:48.052Z,982.33
2019-02-28T00:17:47.966Z,982.32
2019-02-28T00:18:49.913Z,982.27
2019-02-28T00:19:47.796Z,982.26
2019-02-28T00:20:47.708Z,982.23
2019-02-28T00:21:47.629Z,982.22
2019-02-28T00:22:49.306Z,982.21
2019-02-28T00:23:47.458Z,982.18
2019-02-28T00:24:47.374Z,982.18
2019-02-28T00:25:47.293Z,982.16
2019-02-28T00:26:47.949Z,982.15
2019-02-28T00:27:47.121Z,982.13
2019-02-28T00:28:47.035Z,982.09
2019-02-28T00:29:46.946Z,982.14
2019-02-28T00:30:46.861Z,982.14
2019-02-28T00:31:49.467Z,982.13
2019-02-28T00:32:46.692Z,982.08
2019-02-28T00:33:46.609Z,982.06
2019-02-28T00:34:46.528Z,982.08
2019-02-28T00:35:46.441Z,982.09
2019-02-28T00:36:46.363Z,982.04
2019-02-28T00:37:46.275Z,982.08
2019-02-28T00:38:46.189Z,982.03
2019-02-28T00:39:46.104Z,982.07
2019-02-28T00:40:46.019Z,982.01
2019-02-28T00:41:45.938Z,982.00
2019-02-28T00:42:48.085Z,982.02
2019-02-28T00:43:45.763Z,982.04
2019-02-28T00:44:45.697Z,982.03
2019-02-28T00:45:45.598Z,982.01
2019-02-28T00:46:45.505Z,981.99
2019-02-28T00:47:47.452Z,981.94
2019-02-28T00:48:45.333Z,981.96
2019-02-28T00:49:45.253Z,981.94
2019-02-28T00:50:45.175Z,981.93
2019-02-28T00:51:45.081Z,981.94
2019-02-28T00:52:44.998Z,981.94
2019-02-28T00:53:44.912Z,981.90
2019-02-28T00:54:44.827Z,981.91
2019-02-28T00:55:45.885Z,981.88
2019-02-28T00:56:44.655Z,981.89
2019-02-28T00:57:44.569Z,981.89
2019-02-28T00:58:44.485Z,981.86
2019-02-28T00:59:44.412Z,981.84
2019-02-28T01:00:44.324Z,981.87
2019-02-28T01:01:46.062Z,981.81
2019-02-28T01:02:44.143Z,981.84
2019-02-28T01:03:44.061Z,981.85
2019-02-28T01:04:43.977Z,981.83
2019-02-28T01:05:43.892Z,981.82
2019-02-28T01:06:43.812Z,981.84
2019-02-28T01:07:43.712Z,981.81
2019-02-28T01:08:43.635Z,981.81
2019-02-28T01:09:43.552Z,981.81
2019-02-28T01:10:43.463Z,981.78
2019-02-28T01:11:44.807Z,981.71
2019-02-28T01:12:43.306Z,981.76
2019-02-28T01:13:43.209Z,981.74
2019-02-28T01:14:43.125Z,981.73
2019-02-28T01:15:45.036Z,981.72
2019-02-28T01:16:42.956Z,981.74
2019-02-28T01:17:42.864Z,981.68
2019-02-28T01:18:42.780Z,981.67
2019-02-28T01:19:42.699Z,981.71
2019-02-28T01:20:42.611Z,981.63
2019-02-28T01:21:42.527Z,981.66
2019-02-28T01:22:42.441Z,981.63
2019-02-28T01:23:42.354Z,981.63
2019-02-28T01:24:42.304Z,981.63
2019-02-28T01:25:42.187Z,981.59
2019-02-28T01:26:43.377Z,981.57
2019-02-28T01:27:42.014Z,981.56
2019-02-28T01:28:41.932Z,981.56
2019-02-28T01:29:41.851Z,981.54
2019-02-28T01:30:41.760Z,981.51
2019-02-28T01:31:42.606Z,981.49
2019-02-28T01:32:41.591Z,981.46
2019-02-28T01:33:41.505Z,981.43
2019-02-28T01:34:41.419Z,981.39
2019-02-28T01:35:41.506Z,981.42
2019-02-28T01:36:41.276Z,981.41
2019-02-28T01:37:41.168Z,981.36
2019-02-28T01:38:41.084Z,981.36
2019-02-28T01:39:40.992Z,981.35
2019-02-28T01:40:40.911Z,981.36
2019-02-28T01:41:42.264Z,981.38
2019-02-28T01:42:40.741Z,981.34
2019-02-28T01:43:40.659Z,981.29
2019-02-28T01:44:40.569Z,981.34
2019-02-28T01:45:43.494Z,981.35
2019-02-28T01:46:40.400Z,981.30
2019-02-28T01:47:40.313Z,981.27
2019-02-28T01:48:40.229Z,981.29
2019-02-28T01:49:40.146Z,981.28
2019-02-28T01:50:40.060Z,981.28
2019-02-28T01:51:39.978Z,981.27
2019-02-28T01:52:44.352Z,981.23
2019-02-28T01:53:39.804Z,981.22
2019-02-28T01:54:39.718Z,981.21
2019-02-28T01:55:39.636Z,981.20
2019-02-28T01:56:39.560Z,981.16
2019-02-28T01:57:44.095Z,981.15
2019-02-28T01:58:39.378Z,981.12
2019-02-28T01:59:39.295Z,981.11
2019-02-28T02:00:39.210Z,981.08
2019-02-28T02:01:39.126Z,981.09
2019-02-28T02:02:39.141Z,981.07
2019-02-28T02:03:40.715Z,981.05
2019-02-28T02:04:38.869Z,981.04
2019-02-28T02:05:38.785Z,981.00
2019-02-28T02:06:38.698Z,980.98
2019-02-28T02:07:38.615Z,981.01
2019-02-28T02:08:38.528Z,980.93
2019-02-28T02:09:38.443Z,980.92
2019-02-28T02:10:38.364Z,980.91
2019-02-28T02:11:38.286Z,980.85
2019-02-28T02:12:38.186Z,980.84
2019-02-28T02:13:38.105Z,980.85
2019-02-28T02:14:38.063Z,980.80
2019-02-28T02:15:37.937Z,980.76
2019-02-28T02:16:37.851Z,980.77
2019-02-28T02:17:37.765Z,980.78
2019-02-28T02:18:40.208Z,980.71
2019-02-28T02:19:37.601Z,980.74
2019-02-28T02:20:37.514Z,980.74
2019-02-28T02:21:37.426Z,980.65
2019-02-28T02:22:37.340Z,980.70
2019-02-28T02:23:37.251Z,980.66
2019-02-28T02:24:37.171Z,980.65
2019-02-28T02:25:38.182Z,980.65
2019-02-28T02:26:37.003Z,980.58
2019-02-28T02:27:36.913Z,980.60
2019-02-28T02:28:36.831Z,980.56
2019-02-28T02:29:37.130Z,980.54
2019-02-28T02:30:36.658Z,980.54
2019-02-28T02:31:36.578Z,980.48
2019-02-28T02:32:38.711Z,980.49
2019-02-28T02:33:36.402Z,980.46
2019-02-28T02:34:36.320Z,980.42
2019-02-28T02:35:42.208Z,980.43
2019-02-28T02:36:36.150Z,980.43
2019-02-28T02:37:36.065Z,980.42
2019-02-28T02:38:39.892Z,980.46
2019-02-28T02:39:35.891Z,980.38
2019-02-28T02:40:35.811Z,980.39
2019-02-28T02:41:35.726Z,980.40
2019-02-28T02:42:35.637Z,980.40
2019-02-28T02:43:35.547Z,980.37
2019-02-28T02:44:35.468Z,980.37
2019-02-28T02:45:41.667Z,980.33
2019-02-28T02:46:35.294Z,980.32
2019-02-28T02:47:35.218Z,980.32
2019-02-28T02:48:38.506Z,980.36
2019-02-28T02:49:35.043Z,980.31
2019-02-28T02:50:36.118Z,980.30
2019-02-28T02:51:34.871Z,980.33
2019-02-28T02:52:34.784Z,980.30
2019-02-28T02:53:41.410Z,980.25
2019-02-28T02:54:34.616Z,980.29
2019-02-28T02:55:34.532Z,980.25
2019-02-28T02:56:40.709Z,980.24
2019-02-28T02:57:34.361Z,980.22
2019-02-28T02:58:34.273Z,980.18
2019-02-28T02:59:39.055Z,980.15
2019-02-28T03:00:34.101Z,980.18
2019-02-28T03:01:34.031Z,980.13
2019-02-28T03:02:34.379Z,980.14
2019-02-28T03:03:33.850Z,980.17
2019-02-28T03:04:33.763Z,980.11
2019-02-28T03:05:35.680Z,980.14
2019-02-28T03:06:33.603Z,980.13
2019-02-28T03:07:33.518Z,980.14
2019-02-28T03:08:36.417Z,980.11
2019-02-28T03:09:33.340Z,980.09
2019-02-28T03:10:33.252Z,980.11
2019-02-28T03:11:33.165Z,980.11
2019-02-28T03:12:33.087Z,980.05
2019-02-28T03:13:33.006Z,980.03
2019-02-28T03:14:32.910Z,980.02
2019-02-28T03:15:32.827Z,980.02
2019-02-28T03:16:33.383Z,980.04
2019-02-28T03:17:32.659Z,980.03
2019-02-28T03:18:32.574Z,980.03
2019-02-28T03:19:33.713Z,980.06
2019-02-28T03:20:32.399Z,980.03
2019-02-28T03:21:32.315Z,980.00
2019-02-28T03:22:32.232Z,980.00
2019-02-28T03:23:37.951Z,979.99
2019-02-28T03:24:32.063Z,979.96
2019-02-28T03:25:31.986Z,979.99
2019-02-28T03:26:31.897Z,979.99
2019-02-28T03:27:31.802Z,980.01
2019-02-28T03:28:33.263Z,979.97
2019-02-28T03:29:31.635Z,979.95
2019-02-28T03:30:33.239Z,979.92
2019-02-28T03:31:31.469Z,979.94
2019-02-28T03:32:39.729Z,979.92
2019-02-28T03:33:31.298Z,979.93
2019-02-28T03:34:31.266Z,979.96
2019-02-28T03:35:40.558Z,979.94
2019-02-28T03:36:31.034Z,979.92
2019-02-28T03:37:33.290Z,979.88
2019-02-28T03:38:30.868Z,979.88
2019-02-28T03:39:30.785Z,979.88
2019-02-28T03:40:30.697Z,979.85
2019-02-28T03:41:30.611Z,979.82
2019-02-28T03:42:30.526Z,979.82
2019-02-28T03:43:30.437Z,979.81
2019-02-28T03:44:30.355Z,979.84
2019-02-28T03:45:35.116Z,979.83
2019-02-28T03:46:30.186Z,979.80
2019-02-28T03:47:30.112Z,979.80
2019-02-28T03:48:34.887Z,979.81
2019-02-28T03:49:29.933Z,979.80
2019-02-28T03:50:29.858Z,979.78
2019-02-28T03:51:29.761Z,979.79
2019-02-28T03:52:29.674Z,979.85
2019-02-28T03:53:29.591Z,979.82
2019-02-28T03:54:30.144Z,979.83
2019-02-28T03:55:29.419Z,979.85
2019-02-28T03:56:29.334Z,979.83
2019-02-28T03:57:29.655Z,979.85
2019-02-28T03:58:29.164Z,979.87
2019-02-28T03:59:29.071Z,979.84
2019-02-28T04:00:33.109Z,979.82
2019-02-28T04:01:28.906Z,979.83
2019-02-28T04:02:28.829Z,979.84
2019-02-28T04:03:33.383Z,979.84
2019-02-28T04:04:28.653Z,979.84
2019-02-28T04:05:28.669Z,979.85
2019-02-28T04:06:28.478Z,979.83
2019-02-28T04:07:28.395Z,979.83
2019-02-28T04:08:30.459Z,979.86
2019-02-28T04:09:28.226Z,979.81
2019-02-28T04:10:28.138Z,979.85
2019-02-28T04:11:31.330Z,979.84
2019-02-28T04:12:27.969Z,979.83
2019-02-28T04:13:27.884Z,979.83
2019-02-28T04:14:28.328Z,979.82
2019-02-28T04:15:27.716Z,979.83
2019-02-28T04:16:27.628Z,979.86
2019-02-28T04:17:30.422Z,979.87
2019-02-28T04:18:27.461Z,979.84
2019-02-28T04:19:27.387Z,979.79
2019-02-28T04:20:27.289Z,979.85
2019-02-28T04:21:27.199Z,979.88
2019-02-28T04:22:27.114Z,979.87
2019-02-28T04:23:27.030Z,979.82
2019-02-28T04:24:26.947Z,979.84
2019-02-28T04:25:26.862Z,979.86
2019-02-28T04:26:29.794Z,979.81
2019-02-28T04:27:26.693Z,979.79
2019-02-28T04:28:26.603Z,979.79
2019-02-28T04:29:31.182Z,979.78
2019-02-28T04:30:26.434Z,979.75
2019-02-28T04:31:26.351Z,979.74
2019-02-28T04:32:27.587Z,979.71
2019-02-28T04:33:26.178Z,979.72
2019-02-28T04:34:26.093Z,979.71
2019-02-28T04:35:26.026Z,979.69
2019-02-28T04:36:25.922Z,979.68
2019-02-28T04:37:25.834Z,979.69
2019-02-28T04:38:25.751Z,979.65
2019-02-28T04:39:25.674Z,979.63
2019-02-28T04:40:26.995Z,979.66
2019-02-28T04:41:25.497Z,979.60
2019-02-28T04:42:25.410Z,979.65
2019-02-28T04:43:25.328Z,979.63
2019-02-28T04:44:25.243Z,979.64
2019-02-28T04:45:26.257Z,979.61
2019-02-28T04:46:25.072Z,979.63
2019-02-28T04:47:24.983Z,979.62
2019-02-28T04:48:24.901Z,979.64
2019-02-28T04:49:24.815Z,979.63
2019-02-28T04:50:24.726Z,979.60
2019-02-28T04:51:24.641Z,979.63
2019-02-28T04:52:24.557Z,979.65
2019-02-28T04:53:24.470Z,979.64
2019-02-28T04:54:27.582Z,979.59
2019-02-28T04:55:24.298Z,979.65
2019-02-28T04:56:24.215Z,979.64
2019-02-28T04:57:24.124Z,979.62
2019-02-28T04:58:25.278Z,979.64
2019-02-28T04:59:23.959Z,979.62
2019-02-28T05:00:23.872Z,979.58
2019-02-28T05:01:23.788Z,979.61
2019-02-28T05:02:23.701Z,979.61
2019-02-28T05:03:27.927Z,979.56
2019-02-28T05:04:23.532Z,979.58
2019-02-28T05:05:23.443Z,979.52
2019-02-28T05:06:23.362Z,979.55
2019-02-28T05:07:26.288Z,979.51
2019-02-28T05:08:23.188Z,979.51
2019-02-28T05:09:23.103Z,979.48
2019-02-28T05:10:33.288Z,979.46
2019-02-28T05:12:29.999Z,979.44
2019-02-28T05:13:29.787Z,979.43
2019-02-28T05:15:38.669Z,979.43
2019-02-28T05:16:36.477Z,979.41
2019-02-28T05:18:43.388Z,979.35
2019-02-28T05:19:43.211Z,979.38
2019-02-28T05:21:41.021Z,979.35
2019-02-28T05:22:40.865Z,979.31
2019-02-28T05:24:47.730Z,979.25
2019-02-28T05:25:49.120Z,979.30
2019-02-28T05:27:54.417Z,979.29
2019-02-28T05:28:54.404Z,979.29
2019-02-28T05:30:53.051Z,979.35
2019-02-28T05:31:49.996Z,979.33
2019-02-28T05:33:56.904Z,979.36
2019-02-28T05:34:56.729Z,979.36
2019-02-28T05:37:11.980Z,979.38
2019-02-28T05:38:06.460Z,979.35
2019-02-28T05:39:06.401Z,979.32
2019-02-28T05:40:06.959Z,979.31
2019-02-28T05:41:06.166Z,979.33
2019-02-28T05:42:06.085Z,979.30
2019-02-28T05:43:06.002Z,979.32
2019-02-28T05:44:07.163Z,979.35
2019-02-28T05:45:05.833Z,979.33
2019-02-28T05:46:05.737Z,979.31
2019-02-28T05:47:05.658Z,979.36
2019-02-28T05:48:05.570Z,979.36
2019-02-28T05:49:08.766Z,979.35
2019-02-28T05:50:05.399Z,979.36
2019-02-28T05:51:05.310Z,979.35
2019-02-28T05:52:05.228Z,979.37
2019-02-28T05:53:06.258Z,979.38
2019-02-28T05:54:05.055Z,979.35
2019-02-28T05:55:05.001Z,979.33
2019-02-28T05:56:04.890Z,979.33
2019-02-28T05:57:08.241Z,979.35
2019-02-28T05:58:04.712Z,979.34
2019-02-28T05:59:04.625Z,979.36
2019-02-28T06:00:04.546Z,979.39
2019-02-28T06:01:05.598Z,979.36
2019-02-28T06:02:04.372Z,979.39
2019-02-28T06:03:04.291Z,979.37
2019-02-28T06:04:04.193Z,979.35
2019-02-28T06:05:04.109Z,979.35
2019-02-28T06:06:04.040Z,979.39
2019-02-28T06:07:03.954Z,979.41
2019-02-28T06:08:04.297Z,979.45
2019-02-28T06:09:03.768Z,979.47
2019-02-28T06:10:03.681Z,979.47
2019-02-28T06:11:03.593Z,979.47
2019-02-28T06:12:06.423Z,979.46
2019-02-28T06:13:03.424Z,979.54
2019-02-28T06:14:03.337Z,979.54
2019-02-28T06:15:03.812Z,979.52
2019-02-28T06:16:03.164Z,979.52
2019-02-28T06:17:03.105Z,979.55
2019-02-28T06:18:02.991Z,979.53
2019-02-28T06:19:04.596Z,979.56
2019-02-28T06:20:02.826Z,979.60
2019-02-28T06:21:02.735Z,979.56
2019-02-28T06:22:02.647Z,979.59
2019-02-28T06:23:02.563Z,979.54
2019-02-28T06:24:02.476Z,979.61
2019-02-28T06:25:02.391Z,979.59
2019-02-28T06:26:02.304Z,979.54
2019-02-28T06:27:03.706Z,979.55
2019-02-28T06:28:02.133Z,979.59
2019-02-28T06:29:04.757Z,979.59
2019-02-28T06:30:01.966Z,979.60
2019-02-28T06:31:01.880Z,979.55
2019-02-28T06:32:01.790Z,979.56
2019-02-28T06:33:01.707Z,979.59
2019-02-28T06:34:01.617Z,979.59
2019-02-28T06:35:01.536Z,979.58
2019-02-28T06:36:01.448Z,979.60
2019-02-28T06:37:03.623Z,979.60
2019-02-28T06:38:01.274Z,979.58
2019-02-28T06:39:01.185Z,979.56
2019-02-28T06:40:01.138Z,979.58
2019-02-28T06:41:01.014Z,979.54
2019-02-28T06:42:00.931Z,979.58
2019-02-28T06:43:00.844Z,979.53
2019-02-28T06:44:00.760Z,979.56
2019-02-28T06:45:02.508Z,979.52
2019-02-28T06:46:00.585Z,979.52
2019-02-28T06:47:00.503Z,979.52
2019-02-28T06:48:00.415Z,979.49
2019-02-28T06:49:05.813Z,979.54
2019-02-28T06:50:00.256Z,979.54
2019-02-28T06:51:00.159Z,979.50
2019-02-28T06:52:00.071Z,979.50
2019-02-28T06:52:59.989Z,979.51
2019-02-28T06:53:59.910Z,979.47
2019-02-28T06:54:59.852Z,979.53
2019-02-28T06:55:59.742Z,979.56
2019-02-28T06:56:59.644Z,979.54
2019-02-28T06:57:59.817Z,979.56
2019-02-28T06:58:59.472Z,979.51
2019-02-28T06:59:59.384Z,979.53
2019-02-28T07:00:59.310Z,979.51
2019-02-28T07:01:59.212Z,979.50
2019-02-28T07:02:59.127Z,979.51
2019-02-28T07:03:59.042Z,979.53
2019-02-28T07:04:58.958Z,979.49
2019-02-28T07:06:01.037Z,979.50
2019-02-28T07:06:58.782Z,979.51
2019-02-28T07:07:58.694Z,979.51
2019-02-28T07:09:01.893Z,979.50
2019-02-28T07:09:58.530Z,979.49
2019-02-28T07:10:58.449Z,979.48
2019-02-28T07:11:58.355Z,979.44
2019-02-28T07:12:58.271Z,979.44
2019-02-28T07:13:58.187Z,979.47
2019-02-28T07:14:58.101Z,979.42
2019-02-28T07:15:59.121Z,979.46
2019-02-28T07:16:57.928Z,979.43
2019-02-28T07:17:57.844Z,979.44
2019-02-28T07:18:57.760Z,979.42
2019-02-28T07:20:01.657Z,979.44
2019-02-28T07:20:57.589Z,979.38
2019-02-28T07:21:57.505Z,979.39
2019-02-28T07:22:57.414Z,979.40
2019-02-28T07:23:57.335Z,979.37
2019-02-28T07:24:57.243Z,979.40
2019-02-28T07:25:57.161Z,979.41
2019-02-28T07:26:57.076Z,979.38
2019-02-28T07:27:56.993Z,979.40
2019-02-28T07:28:56.905Z,979.45
2019-02-28T07:29:56.823Z,979.43
2019-02-28T07:30:56.739Z,979.45
2019-02-28T07:32:00.020Z,979.43
2019-02-28T07:32:56.563Z,979.41
2019-02-28T07:33:56.488Z,979.41
2019-02-28T07:34:58.266Z,979.43
2019-02-28T07:35:56.310Z,979.38
2019-02-28T07:36:56.223Z,979.38
2019-02-28T07:37:56.138Z,979.37
2019-02-28T07:38:57.784Z,979.35
2019-02-28T07:39:55.967Z,979.36
2019-02-28T07:40:55.910Z,979.33
2019-02-28T07:41:58.810Z,979.30
2019-02-28T07:42:55.711Z,979.33
2019-02-28T07:43:55.628Z,979.28
2019-02-28T07:44:57.993Z,979.27
2019-02-28T07:45:55.457Z,979.28
2019-02-28T07:46:55.371Z,979.30
2019-02-28T07:47:55.291Z,979.30
2019-02-28T07:48:55.201Z,979.31
2019-02-28T07:49:55.120Z,979.28
2019-02-28T07:50:55.031Z,979.27
2019-02-28T07:51:56.955Z,979.28
2019-02-28T07:52:54.867Z,979.26
2019-02-28T07:53:54.778Z,979.21
2019-02-28T07:54:55.857Z,979.21
2019-02-28T07:55:54.607Z,979.16
2019-02-28T07:56:54.522Z,979.20
2019-02-28T07:57:56.578Z,979.14
2019-02-28T07:58:54.354Z,979.16
2019-02-28T07:59:54.267Z,979.14
2019-02-28T08:00:54.186Z,979.13
2019-02-28T08:01:54.112Z,979.16
2019-02-28T08:02:54.016Z,979.08
2019-02-28T08:03:53.929Z,979.12
2019-02-28T08:04:54.542Z,979.07
2019-02-28T08:05:53.759Z,979.08
2019-02-28T08:06:54.918Z,979.06
2019-02-28T08:07:53.590Z,979.02
2019-02-28T08:08:53.506Z,979.05
2019-02-28T08:09:53.419Z,979.00
2019-02-28T08:10:53.338Z,979.02
2019-02-28T08:11:55.453Z,979.02
2019-02-28T08:12:53.165Z,978.97
2019-02-28T08:13:55.392Z,978.96
2019-02-28T08:14:52.993Z,978.95
2019-02-28T08:15:53.366Z,978.89
2019-02-28T08:16:52.822Z,978.90
2019-02-28T08:17:52.745Z,978.89
2019-02-28T08:18:52.686Z,978.85
2019-02-28T08:19:52.573Z,978.81
2019-02-28T08:20:52.487Z,978.79
2019-02-28T08:21:52.406Z,978.77
2019-02-28T08:22:52.318Z,978.72
2019-02-28T08:23:52.231Z,978.75
2019-02-28T08:24:52.158Z,978.75
2019-02-28T08:25:52.069Z,978.72
2019-02-28T08:26:53.512Z,978.73
2019-02-28T08:27:51.895Z,978.76
2019-02-28T08:28:51.840Z,978.72
2019-02-28T08:29:51.730Z,978.73
2019-02-28T08:30:55.376Z,978.73
2019-02-28T08:31:51.559Z,978.71
2019-02-28T08:32:51.480Z,978.70
2019-02-28T08:33:51.396Z,978.67
2019-02-28T08:34:51.308Z,978.68
2019-02-28T08:35:51.228Z,978.71
2019-02-28T08:36:51.154Z,978.74
2019-02-28T08:37:55.712Z,978.74
2019-02-28T08:38:50.976Z,978.73
2019-02-28T08:39:50.900Z,978.73
2019-02-28T08:40:51.692Z,978.73
2019-02-28T08:41:50.723Z,978.74
2019-02-28T08:42:50.641Z,978.73
2019-02-28T08:43:50.556Z,978.72
2019-02-28T08:44:50.469Z,978.73
2019-02-28T08:45:50.384Z,978.71
2019-02-28T08:46:50.301Z,978.71
2019-02-28T08:47:55.262Z,978.68
2019-02-28T08:48:50.130Z,978.68
2019-02-28T08:49:50.053Z,978.63
2019-02-28T08:50:52.569Z,978.65
2019-02-28T08:51:49.882Z,978.60
2019-02-28T08:52:49.795Z,978.59
2019-02-28T08:53:51.292Z,978.62
2019-02-28T08:54:49.630Z,978.59
2019-02-28T08:55:49.549Z,978.59
2019-02-28T08:56:50.703Z,978.60
2019-02-28T08:57:55.737Z,978.59
2019-02-28T08:58:49.295Z,978.57
2019-02-28T08:59:49.220Z,978.59
2019-02-28T09:00:49.130Z,978.65
2019-02-28T09:01:49.052Z,978.64
2019-02-28T09:02:52.262Z,978.64
2019-02-28T09:03:50.253Z,978.62
2019-02-28T09:04:50.881Z,978.65
2019-02-28T09:05:48.715Z,978.60
2019-02-28T09:06:48.628Z,978.64
2019-02-28T09:07:51.303Z,978.66
2019-02-28T09:08:48.465Z,978.64
2019-02-28T09:09:48.395Z,978.64
2019-02-28T09:10:48.293Z,978.67
2019-02-28T09:11:48.213Z,978.69
2019-02-28T09:12:48.125Z,978.63
2019-02-28T09:13:48.050Z,978.67
2019-02-28T09:14:47.969Z,978.64
2019-02-28T09:15:47.877Z,978.61
2019-02-28T09:16:47.798Z,978.58
2019-02-28T09:17:47.735Z,978.56
2019-02-28T09:18:47.629Z,978.52
2019-02-28T09:19:47.547Z,978.48
2019-02-28T09:20:47.461Z,978.52
2019-02-28T09:21:49.391Z,978.50
2019-02-28T09:22:47.300Z,978.50
2019-02-28T09:23:47.216Z,978.46
2019-02-28T09:24:47.452Z,978.46
2019-02-28T09:25:47.047Z,978.45
2019-02-28T09:26:46.969Z,978.45
2019-02-28T09:27:46.882Z,978.44
2019-02-28T09:28:47.499Z,978.46
2019-02-28T09:29:46.717Z,978.48
2019-02-28T09:30:46.630Z,978.36
2019-02-28T09:31:46.552Z,978.39
2019-02-28T09:32:48.287Z,978.41
2019-02-28T09:33:46.391Z,978.37
2019-02-28T09:34:46.308Z,978.45
2019-02-28T09:35:46.591Z,978.45
2019-02-28T09:36:46.138Z,978.47
2019-02-28T09:37:46.057Z,978.46
2019-02-28T09:38:46.007Z,978.43
2019-02-28T09:39:45.892Z,978.44
2019-02-28T09:40:45.810Z,978.43
2019-02-28T09:41:45.733Z,978.39
2019-02-28T09:42:47.956Z,978.43
2019-02-28T09:43:45.563Z,978.39
2019-02-28T09:44:45.479Z,978.38
2019-02-28T09:45:45.399Z,978.36
2019-02-28T09:46:47.415Z,978.29
2019-02-28T09:47:45.234Z,978.31
2019-02-28T09:48:45.153Z,978.28
2019-02-28T09:49:47.177Z,978.22
2019-02-28T09:50:44.988Z,978.23
2019-02-28T09:51:44.907Z,978.26
2019-02-28T09:52:44.822Z,978.16
2019-02-28T09:53:47.268Z,978.16
2019-02-28T09:54:44.670Z,978.15
2019-02-28T09:55:44.578Z,978.17
2019-02-28T09:56:45.262Z,978.09
2019-02-28T09:57:44.415Z,978.14
2019-02-28T09:58:44.337Z,978.08
2019-02-28T09:59:44.251Z,978.10
2019-02-28T10:00:46.927Z,978.11
2019-02-28T10:01:44.113Z,978.06
2019-02-28T10:02:45.085Z,978.10
2019-02-28T10:03:43.926Z,978.07
2019-02-28T10:04:43.843Z,978.12
2019-02-28T10:05:43.762Z,978.10
2019-02-28T10:06:43.692Z,978.03
2019-02-28T10:07:43.597Z,978.07
2019-02-28T10:08:43.517Z,978.19
2019-02-28T10:09:44.388Z,978.05
2019-02-28T10:10:43.365Z,978.10
2019-02-28T10:11:43.274Z,978.16
2019-02-28T10:12:43.237Z,978.16
2019-02-28T10:13:43.114Z,978.19
2019-02-28T10:14:43.033Z,978.09
2019-02-28T10:15:42.949Z,978.19
2019-02-28T10:16:42.871Z,978.22
2019-02-28T10:17:42.789Z,978.15
2019-02-28T10:18:42.709Z,978.32
2019-02-28T10:19:45.723Z,978.16
2019-02-28T10:20:42.554Z,978.24
2019-02-28T10:21:42.466Z,978.17
2019-02-28T10:22:44.382Z,978.23
2019-02-28T10:23:42.877Z,978.13
2019-02-28T10:24:42.227Z,978.13
2019-02-28T10:25:43.721Z,978.11
2019-02-28T10:26:42.065Z,978.18
2019-02-28T10:27:41.983Z,978.16
2019-02-28T10:28:41.904Z,978.14
2019-02-28T10:29:42.692Z,978.01
2019-02-28T10:30:41.741Z,977.94
2019-02-28T10:31:41.660Z,977.99
2019-02-28T10:32:43.463Z,977.82
2019-02-28T10:33:41.498Z,977.92
2019-02-28T10:34:41.430Z,977.85
2019-02-28T10:35:41.344Z,977.88
2019-02-28T10:36:41.259Z,978.01
2019-02-28T10:37:41.181Z,977.98
2019-02-28T10:38:41.102Z,977.97
2019-02-28T10:39:43.181Z,977.96
2019-02-28T10:40:40.941Z,977.91
2019-02-28T10:41:40.867Z,977.83
2019-02-28T10:42:41.477Z,977.88
2019-02-28T10:43:40.704Z,977.87
2019-02-28T10:44:40.625Z,977.81
2019-02-28T10:45:42.152Z,977.82
2019-02-28T10:46:40.466Z,977.76
2019-02-28T10:47:40.381Z,977.76
2019-02-28T10:48:50.454Z,977.73
2019-02-28T10:49:40.224Z,977.68
2019-02-28T10:50:40.153Z,977.66
2019-02-28T10:51:40.068Z,977.69
2019-02-28T10:52:39.993Z,977.72
2019-02-28T10:53:40.246Z,977.73
2019-02-28T10:54:39.837Z,977.68
2019-02-28T10:55:39.755Z,977.75
2019-02-28T10:56:39.669Z,977.70
2019-02-28T10:57:40.606Z,977.79
2019-02-28T10:58:39.521Z,977.75
2019-02-28T10:59:39.444Z,977.89
2019-02-28T11:00:39.363Z,977.71
2019-02-28T11:01:42.016Z,977.79
2019-02-28T11:02:39.206Z,977.77
2019-02-28T11:03:39.125Z,977.82
2019-02-28T11:04:42.793Z,977.83
2019-02-28T11:05:38.984Z,977.83
2019-02-28T11:06:38.898Z,977.73
2019-02-28T11:07:38.818Z,977.67
2019-02-28T11:08:38.739Z,977.65
2019-02-28T11:09:38.668Z,977.67
2019-02-28T11:10:38.590Z,977.72
2019-02-28T11:11:38.508Z,977.70
2019-02-28T11:12:38.438Z,977.71
2019-02-28T11:13:38.362Z,977.84
2019-02-28T11:14:38.658Z,977.68
2019-02-28T11:15:38.208Z,977.80
2019-02-28T11:16:38.133Z,977.88
2019-02-28T11:17:38.060Z,977.72
2019-02-28T11:18:37.980Z,977.76
2019-02-28T11:19:37.900Z,977.80
2019-02-28T11:20:37.828Z,977.82
2019-02-28T11:21:37.758Z,978.00
2019-02-28T11:22:39.893Z,977.77
2019-02-28T11:23:37.599Z,977.74
2019-02-28T11:24:37.537Z,977.96
2019-02-28T11:25:37.457Z,977.77
2019-02-28T11:26:37.383Z,977.81
2019-02-28T11:27:37.309Z,977.74
2019-02-28T11:28:37.240Z,977.65
2019-02-28T11:29:37.164Z,977.68
2019-02-28T11:30:37.092Z,977.71
2019-02-28T11:31:37.018Z,977.73
2019-02-28T11:32:36.944Z,977.91
2019-02-28T11:33:39.661Z,977.74
2019-02-28T11:34:36.812Z,977.67
2019-02-28T11:35:36.738Z,977.88
2019-02-28T11:36:36.668Z,977.76
2019-02-28T11:37:36.593Z,977.66
2019-02-28T11:38:36.527Z,977.77
2019-02-28T11:39:36.459Z,977.71
2019-02-28T11:40:36.389Z,977.68
2019-02-28T11:41:36.325Z,977.64
2019-02-28T11:42:36.261Z,977.65
2019-02-28T11:43:38.393Z,977.64
2019-02-28T11:44:36.124Z,977.71
2019-02-28T11:45:36.053Z,977.58
2019-02-28T11:46:36.708Z,977.66
2019-02-28T11:47:35.922Z,977.65
2019-02-28T11:48:35.854Z,977.54
2019-02-28T11:49:35.790Z,977.60
2019-02-28T11:50:41.237Z,977.58
2019-02-28T11:51:35.651Z,977.52
2019-02-28T11:52:35.589Z,977.54
2019-02-28T11:53:39.274Z,977.55
2019-02-28T11:54:35.458Z,977.57
2019-02-28T11:55:35.395Z,977.56
2019-02-28T11:56:35.319Z,977.41
2019-02-28T11:57:37.799Z,977.41
2019-02-28T11:58:35.207Z,977.43
2019-02-28T11:59:35.129Z,977.49
2019-02-28T12:00:35.724Z,977.46
2019-02-28T12:01:35.000Z,977.53
2019-02-28T12:02:34.927Z,977.46
2019-02-28T12:03:35.452Z,977.39
2019-02-28T12:04:37.493Z,977.39
2019-02-28T12:05:34.731Z,977.52
2019-02-28T12:06:34.662Z,977.39
2019-02-28T12:07:34.860Z,977.44
2019-02-28T12:08:34.530Z,977.30
2019-02-28T12:09:34.459Z,977.41
2019-02-28T12:10:34.393Z,977.36
2019-02-28T12:11:36.559Z,977.40
2019-02-28T12:12:34.262Z,977.25
2019-02-28T12:13:34.195Z,977.28
2019-02-28T12:14:34.127Z,977.27
2019-02-28T12:15:34.059Z,977.31
2019-02-28T12:16:35.267Z,977.34
2019-02-28T12:17:33.924Z,977.40
2019-02-28T12:18:39.502Z,977.27
2019-02-28T12:19:33.781Z,977.36
2019-02-28T12:20:33.720Z,977.28
2019-02-28T12:21:37.586Z,977.27
2019-02-28T12:22:33.584Z,977.43
2019-02-28T12:23:33.519Z,977.37
2019-02-28T12:24:33.443Z,977.29
2019-02-28T12:25:33.378Z,977.37
2019-02-28T12:26:33.314Z,977.37
2019-02-28T12:27:33.246Z,977.59
2019-02-28T12:28:35.207Z,977.47
2019-02-28T12:29:33.108Z,977.40
2019-02-28T12:30:33.063Z,977.25
2019-02-28T12:31:35.606Z,977.23
2019-02-28T12:32:32.907Z,977.26
2019-02-28T12:33:32.831Z,977.27
2019-02-28T12:34:32.768Z,977.32
2019-02-28T12:35:36.245Z,977.26
2019-02-28T12:36:32.635Z,977.41
2019-02-28T12:37:34.379Z,977.41